createdAt,value
2022-10-11T00:00:34.548Z,140.60
2022-10-11T00:03:03.141Z,135.65
2022-10-11T00:05:31.058Z,150.88
2022-10-11T00:08:00.224Z,140.82
2022-10-11T00:10:28.138Z,148.23
2022-10-11T00:12:55.987Z,129.70
2022-10-11T00:15:25.848Z,140.13
2022-10-11T00:17:53.708Z,159.43
2022-10-11T00:20:22.373Z,178.95
2022-10-11T00:22:50.402Z,163.82
2022-10-11T00:25:19.198Z,154.80
2022-10-11T00:27:47.140Z,160.00
2022-10-11T00:30:15.203Z,163.93
2022-10-11T00:32:44.680Z,146.45
2022-10-11T00:35:12.556Z,157.27
2022-10-11T00:37:40.904Z,146.75
2022-10-11T00:40:14.204Z,158.27
2022-10-11T00:42:42.167Z,149.07
2022-10-11T00:45:56.252Z,140.57
2022-10-11T00:48:30.847Z,143.40
2022-10-11T00:51:01.899Z,137.90
2022-10-11T00:53:31.807Z,136.18
2022-10-11T00:56:07.012Z,146.07
2022-10-11T00:58:37.458Z,157.25
2022-10-11T01:01:05.559Z,162.13
2022-10-11T01:03:38.190Z,163.20
2022-10-11T01:06:06.956Z,182.93
2022-10-11T01:08:35.496Z,173.38
2022-10-11T01:11:03.793Z,150.38
2022-10-11T01:13:42.811Z,156.27
2022-10-11T01:16:17.002Z,183.57
2022-10-11T01:18:56.336Z,194.45
2022-10-11T01:21:36.170Z,189.10
2022-10-11T01:24:31.252Z,181.98
2022-10-11T01:27:30.716Z,169.65
2022-10-11T01:30:08.400Z,161.68
2022-10-11T01:32:47.730Z,170.93
2022-10-11T01:35:22.670Z,164.25
2022-10-11T01:37:56.963Z,163.52
2022-10-11T01:40:28.646Z,162.63
2022-10-11T01:42:58.718Z,159.55
2022-10-11T01:45:26.747Z,145.30
2022-10-11T01:48:05.848Z,162.55
2022-10-11T01:50:46.213Z,185.63
2022-10-11T01:53:41.210Z,195.98
2022-10-11T01:56:21.928Z,190.98
2022-10-11T01:59:03.556Z,188.73
2022-10-11T02:01:44.235Z,186.27
2022-10-11T02:04:21.474Z,187.30
2022-10-11T02:07:00.307Z,184.95
2022-10-11T02:09:33.870Z,194.55
2022-10-11T02:12:07.382Z,193.13
2022-10-11T02:14:41.459Z,186.85
2022-10-11T02:17:13.853Z,171.98
2022-10-11T02:19:46.604Z,167.00
2022-10-11T02:22:19.537Z,173.38
2022-10-11T02:24:51.448Z,171.18
2022-10-11T02:27:23.988Z,173.98
2022-10-11T02:29:55.028Z,186.27
2022-10-11T02:32:26.743Z,184.82
2022-10-11T02:34:58.656Z,176.98
2022-10-11T02:37:32.629Z,174.20
2022-10-11T02:40:07.807Z,164.82
2022-10-11T02:42:39.946Z,179.15
2022-10-11T02:45:14.265Z,194.20
2022-10-11T02:47:43.577Z,190.98
2022-10-11T02:50:14.303Z,178.63
2022-10-11T02:52:42.253Z,171.23
2022-10-11T02:55:11.489Z,178.30
2022-10-11T02:57:40.428Z,188.80
2022-10-11T03:00:09.230Z,189.38
2022-10-11T03:02:37.103Z,138.32
2022-10-11T03:05:05.593Z,142.65
2022-10-11T03:07:34.847Z,131.50
2022-10-11T03:10:02.730Z,148.95
2022-10-11T03:12:30.876Z,140.35
2022-10-11T03:14:58.981Z,147.88
2022-10-11T03:17:42.829Z,157.77
2022-10-11T03:20:11.272Z,150.55
2022-10-11T03:22:42.229Z,131.75
2022-10-11T03:25:10.981Z,144.50
2022-10-11T03:27:38.803Z,154.35
2022-10-11T03:30:10.050Z,152.88
2022-10-11T03:32:38.213Z,144.55
2022-10-11T03:35:07.368Z,154.20
2022-10-11T03:37:35.273Z,143.32
2022-10-11T03:40:05.129Z,145.43
2022-10-11T03:42:32.926Z,139.85
2022-10-11T03:45:04.750Z,148.60
2022-10-11T03:47:32.711Z,146.00
2022-10-11T03:50:00.521Z,154.45
2022-10-11T03:52:28.350Z,152.40
2022-10-11T03:54:56.365Z,147.70
2022-10-11T03:57:25.580Z,138.95
2022-10-11T03:59:53.453Z,147.93
2022-10-11T04:02:21.444Z,146.45
2022-10-11T04:04:49.315Z,151.50
2022-10-11T04:07:17.231Z,148.60
2022-10-11T04:09:45.212Z,118.07
2022-10-11T04:12:13.394Z,128.20
2022-10-11T04:14:42.663Z,117.63
2022-10-11T04:17:11.045Z,120.78
2022-10-11T04:19:38.859Z,135.35
2022-10-11T04:22:07.057Z,132.25
2022-10-11T04:24:35.335Z,120.47
2022-10-11T04:27:03.194Z,131.05
2022-10-11T04:29:32.749Z,123.47
2022-10-11T04:32:02.241Z,108.93
2022-10-11T04:34:30.155Z,139.90
2022-10-11T04:36:58.155Z,127.28
2022-10-11T04:39:25.953Z,123.43
2022-10-11T04:41:53.766Z,146.73
2022-10-11T04:44:21.916Z,141.85
2022-10-11T04:46:49.801Z,140.40
2022-10-11T04:49:18.976Z,144.10
2022-10-11T04:51:46.798Z,141.52
2022-10-11T04:54:14.746Z,141.77
2022-10-11T04:56:42.763Z,129.63
2022-10-11T04:59:10.816Z,90.60
2022-10-11T05:01:38.710Z,58.22
2022-10-11T05:04:06.824Z,95.78
2022-10-11T05:06:36.013Z,102.93
2022-10-11T05:09:05.913Z,125.68
2022-10-11T05:11:33.727Z,94.20
2022-10-11T05:14:01.579Z,120.55
2022-10-11T05:16:29.524Z,78.70
2022-10-11T05:18:57.321Z,116.13
2022-10-11T05:21:26.464Z,129.13
2022-10-11T05:23:57.212Z,111.70
2022-10-11T05:26:27.821Z,111.90
2022-10-11T05:28:56.617Z,119.47
2022-10-11T05:31:24.613Z,93.03
2022-10-11T05:33:52.777Z,86.03
2022-10-11T05:36:20.694Z,96.20
2022-10-11T05:38:48.879Z,106.53
2022-10-11T05:41:18.753Z,117.18
2022-10-11T05:43:46.709Z,93.65
2022-10-11T05:46:14.735Z,107.05
2022-10-11T05:48:43.016Z,124.43
2022-10-11T05:51:12.420Z,114.97
2022-10-11T05:53:40.466Z,99.43
2022-10-11T05:56:21.230Z,74.80
2022-10-11T05:58:49.108Z,55.25
2022-10-11T06:01:19.309Z,85.25
2022-10-11T06:03:47.169Z,89.68
2022-10-11T06:06:15.223Z,88.35
2022-10-11T06:08:43.341Z,90.72
2022-10-11T06:11:13.358Z,71.40
2022-10-11T06:13:43.069Z,87.05
2022-10-11T06:16:11.733Z,78.97
2022-10-11T06:18:39.639Z,71.85
2022-10-11T06:21:07.855Z,69.32
2022-10-11T06:23:36.081Z,107.28
2022-10-11T06:26:07.551Z,13.35
2022-10-11T06:28:37.340Z,14.27
2022-10-11T06:31:07.926Z,15.00
2022-10-11T06:33:36.348Z,84.93
2022-10-11T06:36:07.770Z,117.57
2022-10-11T06:38:36.699Z,124.43
2022-10-11T06:41:14.047Z,109.20
2022-10-11T06:43:41.901Z,120.95
2022-10-11T06:46:11.745Z,115.03
2022-10-11T06:48:41.415Z,122.97
2022-10-11T06:51:09.600Z,123.35
2022-10-11T06:53:39.031Z,124.95
2022-10-11T06:56:10.135Z,118.32
2022-10-11T06:58:38.293Z,107.68
2022-10-11T07:01:08.668Z,117.72
2022-10-11T07:03:38.269Z,110.78
2022-10-11T07:06:09.207Z,98.18
2022-10-11T07:08:38.053Z,92.32
2022-10-11T07:11:07.960Z,77.60
2022-10-11T07:13:36.377Z,124.05
2022-10-11T07:16:05.215Z,123.40
2022-10-11T07:18:33.705Z,15.77
2022-10-11T07:21:06.403Z,116.50
2022-10-11T07:23:34.648Z,134.57
2022-10-11T07:26:02.778Z,124.55
2022-10-11T07:28:31.627Z,123.43
2022-10-11T07:31:00.286Z,107.80
2022-10-11T07:33:28.296Z,101.97
2022-10-11T07:35:58.995Z,95.47
2022-10-11T07:38:28.741Z,107.88
2022-10-11T07:40:56.677Z,94.03
2022-10-11T07:43:24.991Z,90.00
2022-10-11T07:45:55.650Z,105.68
2022-10-11T07:48:23.798Z,102.60
2022-10-11T07:50:51.677Z,107.22
2022-10-11T07:53:19.842Z,106.07
2022-10-11T07:55:49.322Z,70.78
2022-10-11T07:58:17.188Z,86.07
2022-10-11T08:00:45.359Z,96.70
2022-10-11T08:03:14.060Z,101.82
2022-10-11T08:05:42.078Z,103.82
2022-10-11T08:08:09.885Z,106.40
2022-10-11T08:10:39.465Z,95.50
2022-10-11T08:13:08.760Z,120.10
2022-10-11T08:15:36.979Z,96.78
2022-10-11T08:18:08.395Z,103.70
2022-10-11T08:20:36.316Z,105.60
2022-10-11T08:23:04.184Z,115.90
2022-10-11T08:25:32.091Z,109.60
2022-10-11T08:28:00.135Z,114.10
2022-10-11T08:30:29.718Z,133.90
2022-10-11T08:32:57.606Z,128.20
2022-10-11T08:35:25.481Z,115.07
2022-10-11T08:37:53.810Z,133.23
2022-10-11T08:40:23.205Z,139.43
2022-10-11T08:42:59.482Z,146.90
2022-10-11T08:45:34.295Z,147.60
2022-10-11T08:48:14.781Z,151.70
2022-10-11T08:50:45.995Z,143.13
2022-10-11T08:53:20.146Z,143.68
2022-10-11T08:55:52.444Z,138.82
2022-10-11T08:58:24.310Z,137.45
2022-10-11T09:00:56.617Z,132.35
2022-10-11T09:03:30.828Z,133.27
2022-10-11T09:06:09.965Z,143.50
2022-10-11T09:08:57.399Z,147.70
2022-10-11T09:11:40.371Z,125.95
2022-10-11T09:14:23.398Z,126.43
2022-10-11T09:17:02.625Z,130.15
2022-10-11T09:20:05.733Z,132.85
2022-10-11T09:22:43.666Z,139.80
2022-10-11T09:25:24.232Z,139.82
2022-10-11T09:28:06.446Z,144.20
2022-10-11T09:30:35.197Z,147.60
2022-10-11T09:33:14.883Z,151.80
2022-10-11T09:35:47.268Z,142.68
2022-10-11T09:38:25.733Z,137.73
2022-10-11T09:41:04.337Z,139.38
2022-10-11T09:43:32.732Z,146.82
2022-10-11T09:46:01.054Z,142.48
2022-10-11T09:48:39.800Z,131.80
2022-10-11T09:51:13.986Z,136.15
2022-10-11T09:53:57.933Z,127.75
2022-10-11T09:56:27.532Z,141.07
2022-10-11T09:59:26.746Z,135.93
2022-10-11T10:02:21.257Z,130.15
2022-10-11T10:05:15.596Z,126.63
2022-10-11T10:08:04.485Z,132.52
2022-10-11T10:10:38.615Z,113.00
2022-10-11T10:13:18.006Z,98.72
2022-10-11T10:15:48.232Z,101.80
2022-10-11T10:18:23.746Z,112.05
2022-10-11T10:20:59.519Z,102.95
2022-10-11T10:23:30.440Z,107.55
2022-10-11T10:26:12.875Z,109.60
2022-10-11T10:28:54.803Z,117.28
2022-10-11T10:31:24.475Z,120.60
2022-10-11T10:33:55.717Z,112.97
2022-10-11T10:36:29.724Z,113.78
2022-10-11T10:39:03.575Z,114.88
2022-10-11T10:41:31.439Z,122.35
2022-10-11T10:44:00.713Z,108.82
2022-10-11T10:46:54.319Z,78.10
2022-10-11T10:52:45.627Z,81.32
2022-10-11T10:55:23.493Z,70.10
2022-10-11T10:58:03.635Z,106.38
2022-10-11T11:00:40.075Z,108.78
2022-10-11T11:03:14.896Z,94.78
2022-10-11T11:05:49.433Z,80.38
2022-10-11T11:08:32.265Z,84.32
2022-10-11T11:11:12.304Z,103.30
2022-10-11T11:13:50.571Z,79.50
2022-10-11T11:16:25.253Z,113.50
2022-10-11T11:18:59.267Z,98.90
2022-10-11T11:21:41.723Z,99.22
2022-10-11T11:24:16.903Z,101.63
2022-10-11T11:26:52.334Z,119.20
2022-10-11T11:29:36.162Z,107.78
2022-10-11T11:32:15.104Z,125.25
2022-10-11T11:34:48.092Z,115.05
2022-10-11T11:37:26.184Z,113.53
2022-10-11T11:40:00.689Z,115.70
2022-10-11T11:42:36.410Z,122.93
2022-10-11T11:45:14.453Z,117.95
2022-10-11T11:47:48.193Z,125.63
2022-10-11T11:50:22.565Z,124.80
2022-10-11T11:52:55.661Z,95.38
2022-10-11T11:55:32.651Z,79.22
2022-10-11T11:58:13.886Z,45.03
2022-10-11T12:00:53.888Z,64.15
2022-10-11T12:03:27.891Z,75.45
2022-10-11T12:06:21.236Z,72.15
2022-10-11T12:08:56.813Z,88.75
2022-10-11T12:11:34.528Z,92.90
2022-10-11T12:14:17.617Z,51.75
2022-10-11T12:17:17.433Z,49.75
2022-10-11T12:20:03.005Z,80.57
2022-10-11T12:22:56.184Z,97.35
2022-10-11T12:25:40.885Z,115.30
2022-10-11T12:29:00.920Z,95.63
2022-10-11T12:31:30.805Z,62.65
2022-10-11T12:34:20.684Z,107.00
2022-10-11T12:36:50.263Z,69.07
2022-10-11T12:39:52.819Z,104.30
2022-10-11T12:42:30.468Z,121.80
2022-10-11T12:45:32.415Z,130.93
2022-10-11T12:48:21.887Z,91.45
2022-10-11T12:51:03.232Z,127.85
2022-10-11T12:54:21.465Z,147.40
2022-10-11T12:56:50.314Z,153.93
2022-10-11T12:59:21.109Z,154.98
2022-10-11T13:01:53.181Z,161.43
2022-10-11T13:04:23.494Z,147.38
2022-10-11T13:06:57.356Z,165.18
2022-10-11T13:09:31.160Z,141.98
2022-10-11T13:12:04.194Z,142.20
2022-10-11T13:14:37.059Z,152.07
2022-10-11T13:17:18.332Z,155.52
2022-10-11T13:19:46.215Z,145.25
2022-10-11T13:22:19.967Z,152.80
2022-10-11T13:24:48.007Z,146.35
2022-10-11T13:27:21.681Z,147.30
2022-10-11T13:29:51.630Z,149.52
2022-10-11T13:32:23.784Z,164.10
2022-10-11T13:37:31.278Z,168.15
2022-10-11T13:39:59.780Z,179.57
2022-10-11T13:42:30.663Z,193.52
2022-10-11T13:44:59.445Z,189.55
2022-10-11T13:47:31.724Z,181.05
2022-10-11T13:50:12.282Z,161.35
2022-10-11T13:52:54.699Z,171.95
2022-10-11T13:55:29.621Z,167.05
2022-10-11T13:57:59.703Z,166.20
2022-10-11T14:00:33.387Z,177.48
2022-10-11T14:03:06.349Z,175.57
2022-10-11T14:05:38.172Z,181.05
2022-10-11T14:08:08.845Z,181.40
2022-10-11T14:10:37.127Z,185.52
2022-10-11T14:13:24.228Z,190.07
2022-10-11T14:16:04.058Z,182.52
2022-10-11T14:18:46.148Z,166.82
2022-10-11T14:21:29.300Z,179.57
2022-10-11T14:23:59.527Z,174.70
2022-10-11T14:26:32.122Z,191.32
2022-10-11T14:29:03.343Z,199.52
2022-10-11T14:31:31.597Z,209.80
2022-10-11T14:34:00.988Z,189.95
2022-10-11T14:36:28.916Z,198.25
2022-10-11T14:38:56.828Z,191.25
2022-10-11T14:41:24.760Z,153.95
2022-10-11T14:43:56.451Z,160.48
2022-10-11T14:46:27.389Z,158.88
2022-10-11T14:48:56.746Z,228.20
2022-10-11T14:51:31.126Z,220.95
2022-10-11T14:53:59.401Z,229.23
2022-10-11T14:56:27.348Z,232.27
2022-10-11T14:58:55.218Z,226.10
2022-10-11T15:01:23.151Z,226.45
2022-10-11T15:03:51.349Z,229.52
2022-10-11T15:06:21.103Z,228.43
2022-10-11T15:08:50.551Z,228.00
2022-10-11T15:11:20.613Z,226.57
2022-10-11T15:13:49.701Z,224.30
2022-10-11T15:16:21.014Z,234.25
2022-10-11T15:18:51.042Z,227.93
2022-10-11T15:21:20.878Z,221.02
2022-10-11T15:23:51.699Z,217.50
2022-10-11T15:26:21.390Z,225.50
2022-10-11T15:28:50.292Z,229.43
2022-10-11T15:31:18.964Z,230.18
2022-10-11T15:33:46.874Z,224.80
2022-10-11T15:36:17.259Z,226.38
2022-10-11T15:38:46.212Z,219.13
2022-10-11T15:41:19.016Z,229.45
2022-10-11T15:43:48.630Z,232.05
2022-10-11T15:46:18.347Z,229.05
2022-10-11T15:48:47.070Z,232.13
2022-10-11T15:51:15.286Z,229.60
2022-10-11T15:53:43.217Z,226.30
2022-10-11T15:56:16.894Z,225.95
2022-10-11T15:58:44.929Z,223.27
2022-10-11T16:01:15.639Z,228.52
2022-10-11T16:03:44.270Z,226.65
2022-10-11T16:06:13.115Z,236.55
2022-10-11T16:08:41.663Z,225.68
2022-10-11T16:11:10.916Z,221.93
2022-10-11T16:13:40.491Z,224.00
2022-10-11T16:16:10.448Z,221.65
2022-10-11T16:18:39.117Z,223.15
2022-10-11T16:21:09.006Z,233.07
2022-10-11T16:23:37.808Z,224.25
2022-10-11T16:26:07.981Z,221.52
2022-10-11T16:28:36.577Z,231.48
2022-10-11T16:31:09.576Z,224.55
2022-10-11T16:33:45.508Z,225.93
2022-10-11T16:36:35.986Z,223.43
2022-10-11T16:39:07.141Z,219.52
2022-10-11T16:41:34.986Z,220.90
2022-10-11T16:44:02.809Z,223.52
2022-10-11T16:46:32.293Z,219.38
2022-10-11T16:49:00.422Z,218.77
2022-10-11T16:51:28.488Z,226.38
2022-10-11T16:53:56.355Z,218.90
2022-10-11T16:56:25.115Z,229.30
2022-10-11T16:58:53.858Z,230.50
2022-10-11T17:01:21.966Z,226.85
2022-10-11T17:03:51.863Z,228.30
2022-10-11T17:06:20.293Z,221.88
2022-10-11T17:08:48.347Z,226.73
2022-10-11T17:11:17.790Z,223.93
2022-10-11T17:13:46.066Z,224.02
2022-10-11T17:16:14.366Z,226.75
2022-10-11T17:18:42.556Z,208.48
2022-10-11T17:21:15.357Z,211.32
2022-10-11T17:23:43.444Z,225.38
2022-10-11T17:26:15.286Z,210.05
2022-10-11T17:28:43.466Z,204.82
2022-10-11T17:31:12.046Z,203.65
2022-10-11T17:33:40.117Z,208.38
2022-10-11T17:39:02.730Z,204.07
2022-10-11T17:41:32.528Z,197.98
2022-10-11T17:44:01.164Z,199.98
2022-10-11T17:46:35.367Z,197.52
2022-10-11T17:49:05.825Z,209.07
2022-10-11T17:51:34.189Z,206.57
2022-10-11T17:54:04.848Z,205.88
2022-10-11T17:56:37.663Z,208.40
2022-10-11T17:59:06.382Z,209.55
2022-10-11T18:01:34.355Z,213.95
2022-10-11T18:04:06.634Z,203.52
2022-10-11T18:06:40.241Z,204.90
2022-10-11T18:09:09.430Z,212.68
2022-10-11T18:11:37.182Z,204.85
2022-10-11T18:14:06.697Z,213.93
2022-10-11T18:16:37.391Z,203.73
2022-10-11T18:19:06.672Z,216.23
2022-10-11T18:21:36.763Z,231.23
2022-10-11T18:24:07.725Z,220.77
2022-10-11T18:26:38.153Z,205.80
2022-10-11T18:29:06.948Z,211.88
2022-10-11T18:31:37.931Z,216.63
2022-10-11T18:34:10.290Z,207.48
2022-10-11T18:36:38.888Z,209.05
2022-10-11T18:39:10.321Z,203.00
2022-10-11T18:41:45.334Z,208.18
2022-10-11T18:44:15.993Z,201.40
2022-10-11T18:46:50.286Z,207.32
2022-10-11T18:49:20.575Z,199.32
2022-10-11T18:51:48.680Z,198.27
2022-10-11T18:54:26.163Z,202.70
2022-10-11T18:56:59.150Z,203.27
2022-10-11T18:59:29.973Z,201.60
2022-10-11T19:02:01.972Z,190.88
2022-10-11T19:04:35.173Z,187.77
2022-10-11T19:07:12.445Z,181.38
2022-10-11T19:09:40.494Z,187.43
2022-10-11T19:12:09.988Z,189.27
2022-10-11T19:14:44.699Z,187.55
2022-10-11T19:17:34.747Z,198.07
2022-10-11T19:20:22.681Z,201.13
2022-10-11T19:22:57.185Z,188.20
2022-10-11T19:25:29.038Z,189.95
2022-10-11T19:28:22.621Z,193.27
2022-10-11T19:30:53.838Z,193.50
2022-10-11T19:33:36.417Z,201.55
2022-10-11T19:36:12.378Z,193.98
2022-10-11T19:38:45.327Z,178.77
2022-10-11T19:41:20.751Z,178.02
2022-10-11T19:43:55.454Z,188.95
2022-10-11T19:49:20.465Z,185.32
2022-10-11T19:51:55.725Z,183.85
2022-10-11T19:54:23.974Z,186.95
2022-10-11T19:56:56.314Z,181.02
2022-10-11T20:01:54.828Z,192.40
2022-10-11T20:04:50.447Z,187.90
2022-10-11T20:07:12.113Z,187.40
2022-10-11T20:09:45.515Z,197.02
2022-10-11T20:12:13.374Z,196.05
2022-10-11T20:14:50.366Z,202.32
2022-10-11T20:17:19.594Z,202.43
2022-10-11T20:19:47.758Z,203.73
2022-10-11T20:22:18.514Z,204.02
2022-10-11T20:24:47.715Z,198.20
2022-10-11T20:27:15.801Z,197.85
2022-10-11T20:29:47.258Z,193.10
2022-10-11T20:32:15.327Z,198.15
2022-10-11T20:34:45.193Z,204.70
2022-10-11T20:37:13.251Z,196.85
2022-10-11T20:39:41.197Z,196.40
2022-10-11T20:42:09.285Z,198.52
2022-10-11T20:44:37.083Z,191.70
2022-10-11T20:47:05.078Z,199.43
2022-10-11T20:49:32.841Z,193.65
2022-10-11T20:52:01.992Z,187.25
2022-10-11T20:54:30.589Z,194.45
2022-10-11T20:56:59.245Z,196.07
2022-10-11T20:59:27.095Z,189.82
2022-10-11T21:01:54.889Z,190.63
2022-10-11T21:04:22.674Z,191.30
2022-10-11T21:06:50.746Z,191.13
2022-10-11T21:09:20.124Z,191.25
2022-10-11T21:11:47.922Z,189.50
2022-10-11T21:14:15.680Z,185.27
2022-10-11T21:16:43.452Z,187.40
2022-10-11T21:19:14.536Z,180.77
2022-10-11T21:21:42.784Z,177.85
2022-10-11T21:24:10.550Z,181.85
2022-10-11T21:26:39.835Z,186.48
2022-10-11T21:29:08.457Z,194.40
2022-10-11T21:31:36.662Z,190.63
2022-10-11T21:34:05.433Z,194.38
2022-10-11T21:36:33.191Z,178.80
2022-10-11T21:39:01.229Z,185.30
2022-10-11T21:41:30.320Z,189.40
2022-10-11T21:43:59.662Z,197.65
2022-10-11T21:46:54.020Z,183.93
2022-10-11T21:49:17.819Z,182.93
2022-10-11T21:51:46.134Z,179.43
2022-10-11T21:54:13.900Z,183.60
2022-10-11T21:56:42.202Z,165.82
2022-10-11T21:59:12.642Z,169.38
2022-10-11T22:01:41.357Z,184.65
2022-10-11T22:04:09.245Z,192.63
2022-10-11T22:06:37.886Z,188.98
2022-10-11T22:09:06.779Z,175.18
2022-10-11T22:11:34.599Z,173.45
2022-10-11T22:14:02.369Z,176.35
2022-10-11T22:16:31.810Z,184.57
2022-10-11T22:19:00.045Z,190.88
2022-10-11T22:21:27.819Z,179.60
2022-10-11T22:23:55.710Z,190.63
2022-10-11T22:26:25.695Z,184.80
2022-10-11T22:28:54.254Z,189.98
2022-10-11T22:31:23.449Z,190.57
2022-10-11T22:33:55.911Z,200.48
2022-10-11T22:36:24.928Z,181.25
2022-10-11T22:38:53.609Z,176.93
2022-10-11T22:41:21.446Z,163.82
2022-10-11T22:43:49.329Z,185.05
2022-10-11T22:46:17.491Z,181.45
2022-10-11T22:48:45.242Z,168.23
2022-10-11T22:51:14.604Z,182.43
2022-10-11T22:53:42.422Z,175.93
2022-10-11T22:56:11.182Z,174.23
2022-10-11T22:58:39.026Z,170.95
2022-10-11T23:01:10.805Z,180.40
2022-10-11T23:03:38.919Z,177.90
2022-10-11T23:06:06.949Z,172.95
2022-10-11T23:08:36.071Z,172.27
2022-10-11T23:11:05.262Z,167.30
2022-10-11T23:13:33.142Z,179.32
2022-10-11T23:16:01.070Z,175.07
2022-10-11T23:18:28.829Z,192.75
2022-10-11T23:20:56.605Z,191.68
2022-10-11T23:23:24.372Z,177.60
2022-10-11T23:26:02.997Z,173.10
2022-10-11T23:28:30.994Z,170.23
2022-10-11T23:30:58.847Z,168.25
2022-10-11T23:33:26.752Z,170.10
2022-10-11T23:35:54.533Z,168.85
2022-10-11T23:38:22.280Z,159.80
2022-10-11T23:40:50.071Z,160.77
2022-10-11T23:43:19.221Z,173.73
2022-10-11T23:45:46.958Z,162.93
2022-10-11T23:48:14.773Z,156.55
2022-10-11T23:50:43.344Z,157.07
2022-10-11T23:53:13.540Z,162.65
2022-10-11T23:55:41.459Z,172.70
2022-10-11T23:58:09.280Z,156.00
